Terminal Aerodrome Forecast
Issued by NWS

Home | Current Version | Previous Version | Text Only | Print | Product List | Glossary On
Versions: 1 2 3 4 5 6 7 8 9 10 11 12
000
FTUS44 KLIX 210520
TAFGPT
TAF
KGPT 210520Z 2106/2206 25003KT P6SM VCSH SCT035
     FM211000 29004KT P6SM VCTS SCT040CB
     FM211500 35004KT P6SM SCT100 PROB30 2115/2119 4SM -TSRA
      BKN040CB
     FM212000 17006KT P6SM SCT100 PROB30 2120/2123 4SM -TSRA
      BKN100CB
     FM220500 21006KT P6SM SCT110=

USA.gov is the U.S. government's official web portal to all federal, state and local government web resources and services.